Time;durP1;ratioP1;P1;durP2;ratioP2;P2;SDS_P1;SDS_P2;PMS_P1;PMS_P2;Temp;Humidity;BMP_temperature;BMP_pressure;BME280_temperature;BME280_humidity;BME280_pressure;Samples;Min_cycle;Max_cycle;Signal;HPM_P1;HPM_P2
2023/01/28 00:02:13;;;;;;;1.80;1.70;;;;;;;;;;5095376;28;20200;-88
2023/01/28 00:04:41;;;;;;;1.83;1.73;;;;;;;;;;5095383;28;20242;-88
2023/01/28 00:07:08;;;;;;;2.33;2.10;;;;;;;;;;5095839;28;20285;-88
2023/01/28 00:09:36;;;;;;;5.47;2.25;;;;;;;;;;5094447;28;20222;-88
2023/01/28 00:12:03;;;;;;;2.60;2.33;;;;;;;;;;5093606;28;20241;-88
2023/01/28 00:14:31;;;;;;;2.58;1.95;;;;;;;;;;5095271;28;20688;-88
2023/01/28 00:17:00;;;;;;;1.80;1.70;;;;;;;;;;5095940;28;20764;-88
2023/01/28 00:19:27;;;;;;;2.35;2.05;;;;;;;;;;5094658;28;20657;-88
2023/01/28 00:21:55;;;;;;;2.67;2.33;;;;;;;;;;5095768;28;20231;-88
2023/01/28 00:24:22;;;;;;;2.20;2.10;;;;;;;;;;5095995;28;20251;-88
2023/01/28 00:26:50;;;;;;;2.50;2.28;;;;;;;;;;5095385;28;20652;-87
2023/01/28 00:29:17;;;;;;;2.45;2.10;;;;;;;;;;5094931;28;20239;-88
2023/01/28 00:31:45;;;;;;;2.65;2.45;;;;;;;;;;5095800;28;20747;-87
2023/01/28 00:34:14;;;;;;;2.30;2.10;;;;;;;;;;5094804;28;20683;-88
2023/01/28 00:36:41;;;;;;;2.22;2.00;;;;;;;;;;5093723;28;20615;-88
2023/01/28 00:39:13;;;;;;;1.50;1.40;;;;;;;;;;5094263;28;20291;-86
2023/01/28 00:41:41;;;;;;;4.03;1.70;;;;;;;;;;5094985;28;20177;-88
2023/01/28 00:44:09;;;;;;;1.80;1.60;;;;;;;;;;5094155;28;20244;-88
2023/01/28 00:46:37;;;;;;;1.83;1.38;;;;;;;;;;5094855;28;20279;-88
2023/01/28 00:49:04;;;;;;;1.30;1.27;;;;;;;;;;5094559;28;20232;-88
2023/01/28 00:51:33;;;;;;;2.45;1.98;;;;;;;;;;5094363;28;20283;-88
2023/01/28 00:54:01;;;;;;;1.83;1.73;;;;;;;;;;5094085;28;20228;-88
2023/01/28 00:56:29;;;;;;;2.25;2.08;;;;;;;;;;5094324;28;20211;-88
2023/01/28 00:58:56;;;;;;;2.72;1.80;;;;;;;;;;5080167;28;20296;-88
2023/01/28 01:01:26;;;;;;;2.53;2.03;;;;;;;;;;5074171;28;20292;-88
2023/01/28 01:04:01;;;;;;;1.80;1.70;;;;;;;;;;5074027;28;20244;-88
2023/01/28 01:06:30;;;;;;;2.42;1.70;;;;;;;;;;5074278;28;20192;-88
2023/01/28 01:08:59;;;;;;;2.20;2.10;;;;;;;;;;5074039;28;20627;-88
2023/01/28 01:11:26;;;;;;;2.63;1.98;;;;;;;;;;5074103;28;20578;-88
2023/01/28 01:13:55;;;;;;;3.42;2.00;;;;;;;;;;5073896;28;20312;-88
2023/01/28 01:16:25;;;;;;;1.80;1.70;;;;;;;;;;5074057;28;20243;-87
2023/01/28 01:18:54;;;;;;;2.53;2.33;;;;;;;;;;5074381;28;20231;-88
2023/01/28 01:21:23;;;;;;;1.73;1.63;;;;;;;;;;5073845;28;20197;-88
2023/01/28 01:23:52;;;;;;;2.72;1.92;;;;;;;;;;5073681;28;20251;-88
2023/01/28 01:26:21;;;;;;;2.30;2.10;;;;;;;;;;5074034;28;20580;-88
2023/01/28 01:28:48;;;;;;;2.15;2.05;;;;;;;;;;5085099;28;20224;-88
2023/01/28 01:31:18;;;;;;;2.45;2.10;;;;;;;;;;5093614;28;20252;-87
2023/01/28 01:33:48;;;;;;;2.05;1.85;;;;;;;;;;5093991;28;20220;-88
2023/01/28 01:36:18;;;;;;;2.95;1.90;;;;;;;;;;5093720;28;20242;-87
2023/01/28 01:38:46;;;;;;;1.65;1.55;;;;;;;;;;5092875;28;20661;-88
2023/01/28 01:41:27;;;;;;;2.60;1.80;;;;;;;;;;5093872;28;20224;-88
2023/01/28 01:43:58;;;;;;;1.63;1.52;;;;;;;;;;5094816;28;20269;-88
2023/01/28 01:46:35;;;;;;;1.90;1.80;;;;;;;;;;5094000;28;20177;-88
2023/01/28 01:49:12;;;;;;;3.05;2.60;;;;;;;;;;5094416;28;20235;-88
2023/01/28 01:51:40;;;;;;;2.22;1.80;;;;;;;;;;5094318;28;20212;-88
2023/01/28 01:54:08;;;;;;;2.30;1.92;;;;;;;;;;5094220;28;20314;-88
2023/01/28 01:56:41;;;;;;;3.47;2.53;;;;;;;;;;5094212;28;20253;-88
2023/01/28 01:59:11;;;;;;;3.70;2.53;;;;;;;;;;5078596;28;20288;-88
2023/01/28 02:01:39;;;;;;;2.67;1.88;;;;;;;;;;5074454;28;20227;-88
2023/01/28 02:04:10;;;;;;;3.50;1.55;;;;;;;;;;5074091;28;20245;-88
2023/01/28 02:06:38;;;;;;;2.20;1.98;;;;;;;;;;5073509;28;20280;-88
2023/01/28 02:09:22;;;;;;;2.13;1.92;;;;;;;;;;5072790;28;20236;-88
2023/01/28 02:11:52;;;;;;;2.05;1.95;;;;;;;;;;5073705;28;20232;-88
2023/01/28 02:14:19;;;;;;;6.95;3.13;;;;;;;;;;5074422;28;20279;-88
2023/01/28 02:16:47;;;;;;;2.13;1.92;;;;;;;;;;5074477;28;20232;-88
2023/01/28 02:19:14;;;;;;;2.40;2.20;;;;;;;;;;5072768;28;20280;-86
2023/01/28 02:22:05;;;;;;;2.55;2.35;;;;;;;;;;5073233;28;20612;-88
2023/01/28 02:25:26;;;;;;;2.28;2.17;;;;;;;;;;5073810;28;20217;-88
2023/01/28 02:28:16;;;;;;;2.42;2.22;;;;;;;;;;5070694;28;20295;-87
2023/01/28 02:30:52;;;;;;;3.75;2.58;;;;;;;;;;5093970;28;20276;-87
2023/01/28 02:33:26;;;;;;;2.50;2.00;;;;;;;;;;5094548;28;20186;-87
2023/01/28 02:35:55;;;;;;;2.30;2.15;;;;;;;;;;5097835;28;20800;-88
2023/01/28 02:38:28;;;;;;;2.60;2.40;;;;;;;;;;5096230;28;20296;-88
2023/01/28 02:41:05;;;;;;;2.88;1.90;;;;;;;;;;5097555;28;20177;-88
2023/01/28 02:43:39;;;;;;;3.70;2.85;;;;;;;;;;5097538;28;20196;-88
2023/01/28 02:49:05;;;;;;;3.22;1.50;;;;;;;;;;5097606;28;20207;-86
2023/01/28 02:51:46;;;;;;;3.38;1.85;;;;;;;;;;5097331;28;20295;-88
2023/01/28 02:54:20;;;;;;;2.05;1.85;;;;;;;;;;5097784;28;20268;-88
2023/01/28 02:56:54;;;;;;;2.00;1.80;;;;;;;;;;5097442;28;20199;-88
2023/01/28 02:59:32;;;;;;;2.55;2.35;;;;;;;;;;5095200;28;20295;-88
2023/01/28 03:02:09;;;;;;;2.08;1.98;;;;;;;;;;5097810;28;20631;-87
2023/01/28 03:04:44;;;;;;;2.33;1.98;;;;;;;;;;5096715;28;20216;-88
2023/01/28 03:07:13;;;;;;;3.33;2.10;;;;;;;;;;5097268;28;20176;-88
2023/01/28 03:09:42;;;;;;;1.75;1.60;;;;;;;;;;5096290;28;20196;-87
2023/01/28 03:37:27;;;;;;;1.45;1.35;;;;;;;;;;5094633;28;20712;-87
2023/01/28 03:39:56;;;;;;;1.27;1.17;;;;;;;;;;5095448;28;20680;-88
2023/01/28 03:42:24;;;;;;;1.38;1.27;;;;;;;;;;5096262;28;20204;-87
2023/01/28 03:44:52;;;;;;;1.73;1.63;;;;;;;;;;5095729;28;20227;-86
2023/01/28 03:47:22;;;;;;;1.55;1.30;;;;;;;;;;5096209;28;20558;-88
2023/01/28 03:49:52;;;;;;;1.35;1.25;;;;;;;;;;5095269;28;20291;-88
2023/01/28 03:52:22;;;;;;;2.10;1.40;;;;;;;;;;5096040;28;20192;-88
2023/01/28 03:54:51;;;;;;;1.48;1.38;;;;;;;;;;5095519;28;20232;-88
2023/01/28 03:57:22;;;;;;;1.38;1.38;;;;;;;;;;5095505;28;20595;-88
2023/01/28 03:59:51;;;;;;;2.00;1.30;;;;;;;;;;5094142;28;20210;-88
2023/01/28 04:02:21;;;;;;;1.60;1.50;;;;;;;;;;5095812;28;20192;-88
2023/01/28 04:04:50;;;;;;;1.33;1.27;;;;;;;;;;5095753;28;20307;-88
2023/01/28 04:07:17;;;;;;;4.13;1.40;;;;;;;;;;5095184;28;20199;-88
2023/01/28 04:09:45;;;;;;;1.65;1.42;;;;;;;;;;5094914;28;20251;-88
2023/01/28 04:12:13;;;;;;;3.10;1.52;;;;;;;;;;5093960;28;20700;-86
2023/01/28 04:14:41;;;;;;;1.38;1.27;;;;;;;;;;5095350;28;20612;-88
2023/01/28 04:17:09;;;;;;;2.22;1.60;;;;;;;;;;5096020;28;20293;-88
2023/01/28 04:19:39;;;;;;;4.07;1.63;;;;;;;;;;5095031;28;20261;-88
2023/01/28 04:22:10;;;;;;;1.27;1.17;;;;;;;;;;5095369;28;20200;-87
2023/01/28 04:24:37;;;;;;;1.55;1.25;;;;;;;;;;5095279;28;20259;-88
2023/01/28 04:27:05;;;;;;;0.95;0.93;;;;;;;;;;5095475;28;20291;-88
2023/01/28 04:29:32;;;;;;;0.80;0.80;;;;;;;;;;5094355;28;20655;-88
2023/01/28 04:32:00;;;;;;;0.80;0.80;;;;;;;;;;5095069;28;20232;-87
2023/01/28 04:34:27;;;;;;;0.90;0.90;;;;;;;;;;5094962;28;20259;-88
2023/01/28 04:36:56;;;;;;;0.90;0.90;;;;;;;;;;5093464;28;20235;-87
2023/01/28 04:39:24;;;;;;;0.68;0.68;;;;;;;;;;5094728;28;20196;-88
2023/01/28 04:41:51;;;;;;;0.77;0.77;;;;;;;;;;5094629;28;20238;-88
2023/01/28 04:44:19;;;;;;;1.15;1.08;;;;;;;;;;5093105;28;20220;-88
2023/01/28 04:46:46;;;;;;;1.35;0.90;;;;;;;;;;5094471;28;20246;-88
2023/01/28 04:49:14;;;;;;;0.98;0.80;;;;;;;;;;5094078;28;20208;-88
2023/01/28 04:51:41;;;;;;;0.95;0.95;;;;;;;;;;5094199;28;20227;-88
2023/01/28 04:54:10;;;;;;;5.35;1.50;;;;;;;;;;5094743;28;20216;-88
2023/01/28 04:56:38;;;;;;;1.13;1.02;;;;;;;;;;5094127;28;20316;-88
2023/01/28 04:59:05;;;;;;;0.90;0.90;;;;;;;;;;5093276;28;20295;-88
2023/01/28 05:01:33;;;;;;;0.95;0.90;;;;;;;;;;5094360;28;20188;-88
2023/01/28 05:04:04;;;;;;;1.05;1.05;;;;;;;;;;5093611;28;20683;-87
2023/01/28 05:06:31;;;;;;;0.73;0.73;;;;;;;;;;5094551;28;20547;-88
2023/01/28 05:08:59;;;;;;;1.23;1.08;;;;;;;;;;5093780;28;20674;-88
2023/01/28 05:11:28;;;;;;;0.70;0.70;;;;;;;;;;5093777;28;20228;-88
2023/01/28 05:13:56;;;;;;;1.00;1.00;;;;;;;;;;5093755;28;20220;-88
2023/01/28 05:16:23;;;;;;;0.73;0.60;;;;;;;;;;5094226;28;20273;-88
2023/01/28 05:18:51;;;;;;;1.17;0.82;;;;;;;;;;5093766;28;20295;-88
2023/01/28 05:21:18;;;;;;;0.88;0.73;;;;;;;;;;5094857;28;20259;-88
2023/01/28 05:23:46;;;;;;;0.80;0.80;;;;;;;;;;5093836;28;20231;-88
2023/01/28 05:26:13;;;;;;;0.57;0.57;;;;;;;;;;5094514;28;20281;-88
2023/01/28 05:28:42;;;;;;;0.70;0.70;;;;;;;;;;5093000;28;20285;-88
2023/01/28 05:31:11;;;;;;;0.60;0.60;;;;;;;;;;5094317;28;20238;-88
2023/01/28 05:33:38;;;;;;;0.80;0.80;;;;;;;;;;5093563;28;20235;-88
2023/01/28 05:36:07;;;;;;;0.70;0.70;;;;;;;;;;5094182;28;20255;-87
2023/01/28 05:38:34;;;;;;;1.20;1.10;;;;;;;;;;5091917;28;20227;-87
2023/01/28 05:41:02;;;;;;;1.48;0.90;;;;;;;;;;5093750;28;20629;-88
2023/01/28 05:43:29;;;;;;;4.45;1.08;;;;;;;;;;5093635;28;20228;-88
2023/01/28 05:45:58;;;;;;;1.35;1.10;;;;;;;;;;5093238;28;20275;-88
2023/01/28 05:48:26;;;;;;;0.65;0.63;;;;;;;;;;5092516;28;20634;-88
2023/01/28 05:50:53;;;;;;;0.85;0.80;;;;;;;;;;5093369;28;20253;-89
2023/01/28 05:53:21;;;;;;;2.72;1.45;;;;;;;;;;5093699;28;20722;-89
2023/01/28 05:55:49;;;;;;;1.10;1.00;;;;;;;;;;5093388;28;20255;-88
2023/01/28 05:58:17;;;;;;;0.90;0.90;;;;;;;;;;5091859;28;20192;-88
2023/01/28 06:00:45;;;;;;;0.90;0.90;;;;;;;;;;5093626;28;20231;-88
2023/01/28 06:03:14;;;;;;;1.73;0.90;;;;;;;;;;5092962;28;20651;-88
2023/01/28 06:05:41;;;;;;;1.10;1.10;;;;;;;;;;5092917;28;20248;-87
2023/01/28 06:08:09;;;;;;;1.92;1.23;;;;;;;;;;5093067;28;20640;-88
2023/01/28 06:10:36;;;;;;;1.25;1.10;;;;;;;;;;5096075;28;20245;-88
2023/01/28 06:13:04;;;;;;;1.48;0.98;;;;;;;;;;5097130;28;20197;-88
2023/01/28 06:15:31;;;;;;;0.90;0.90;;;;;;;;;;5097893;28;20208;-88
2023/01/28 06:17:59;;;;;;;3.03;1.27;;;;;;;;;;5097620;28;20196;-88
2023/01/28 06:20:28;;;;;;;2.03;1.17;;;;;;;;;;5097385;28;20192;-88
2023/01/28 06:22:58;;;;;;;1.10;1.10;;;;;;;;;;5097081;28;20291;-88
2023/01/28 06:25:25;;;;;;;1.02;1.02;;;;;;;;;;5097565;28;20239;-88
2023/01/28 06:27:53;;;;;;;1.10;1.00;;;;;;;;;;5097100;28;20235;-88
2023/01/28 06:30:20;;;;;;;1.05;1.05;;;;;;;;;;5096823;28;20192;-88
2023/01/28 06:32:53;;;;;;;1.23;1.13;;;;;;;;;;5097149;28;20639;-88
2023/01/28 06:35:20;;;;;;;1.10;1.10;;;;;;;;;;5097032;28;20713;-88
2023/01/28 06:37:51;;;;;;;1.10;1.10;;;;;;;;;;5095403;28;20262;-88
2023/01/28 06:40:19;;;;;;;0.88;0.88;;;;;;;;;;5096952;28;20634;-88
2023/01/28 06:42:47;;;;;;;1.25;1.20;;;;;;;;;;5096411;28;20228;-89
2023/01/28 06:45:14;;;;;;;1.58;1.48;;;;;;;;;;5096190;28;20303;-88
2023/01/28 06:47:42;;;;;;;1.35;1.25;;;;;;;;;;5096584;28;20231;-88
2023/01/28 06:50:11;;;;;;;1.27;1.27;;;;;;;;;;5095756;28;20235;-88
2023/01/28 06:52:39;;;;;;;2.55;1.20;;;;;;;;;;5096999;28;20228;-88
2023/01/28 06:55:09;;;;;;;1.30;1.17;;;;;;;;;;5096125;28;20705;-88
2023/01/28 06:57:39;;;;;;;1.50;1.40;;;;;;;;;;5096595;28;20260;-88
2023/01/28 07:00:09;;;;;;;0.80;0.80;;;;;;;;;;5094093;28;20196;-89
2023/01/28 07:02:37;;;;;;;0.85;0.85;;;;;;;;;;5096166;28;20188;-88
2023/01/28 07:05:05;;;;;;;1.40;1.10;;;;;;;;;;5096507;28;20263;-87
2023/01/28 07:07:33;;;;;;;1.67;1.27;;;;;;;;;;5096279;28;20232;-88
2023/01/28 07:10:00;;;;;;;1.75;1.05;;;;;;;;;;5095060;28;20223;-88
2023/01/28 07:12:29;;;;;;;1.00;1.00;;;;;;;;;;5095860;28;20291;-88
2023/01/28 07:14:57;;;;;;;1.10;1.00;;;;;;;;;;5096140;28;20252;-88
2023/01/28 07:17:24;;;;;;;1.05;0.95;;;;;;;;;;5097720;28;20773;-88
2023/01/28 07:19:52;;;;;;;1.35;1.25;;;;;;;;;;5096899;28;20196;-88
2023/01/28 07:22:19;;;;;;;1.30;1.20;;;;;;;;;;5095806;28;20240;-88
2023/01/28 07:24:47;;;;;;;1.30;1.20;;;;;;;;;;5096262;28;20303;-88
2023/01/28 07:27:15;;;;;;;1.60;1.50;;;;;;;;;;5096048;28;20742;-88
2023/01/28 07:29:43;;;;;;;1.02;1.00;;;;;;;;;;5097341;28;20282;-88
2023/01/28 07:32:11;;;;;;;0.95;0.95;;;;;;;;;;5098743;28;20263;-87
2023/01/28 07:34:41;;;;;;;1.20;1.20;;;;;;;;;;5097337;28;20729;-87
2023/01/28 07:37:09;;;;;;;1.20;1.20;;;;;;;;;;5096425;28;20730;-87
2023/01/28 07:39:37;;;;;;;1.10;1.00;;;;;;;;;;5098704;28;20196;-88
2023/01/28 07:42:05;;;;;;;0.80;0.80;;;;;;;;;;5097937;28;20230;-88
2023/01/28 07:44:34;;;;;;;1.42;1.33;;;;;;;;;;5098202;28;20266;-88
2023/01/28 07:47:03;;;;;;;1.02;0.90;;;;;;;;;;5098933;28;20200;-88
2023/01/28 07:49:33;;;;;;;1.38;1.27;;;;;;;;;;5098456;28;20242;-88
2023/01/28 07:52:01;;;;;;;2.13;1.10;;;;;;;;;;5098136;28;20236;-87
2023/01/28 07:54:29;;;;;;;1.00;1.00;;;;;;;;;;5099004;28;20927;-87
2023/01/28 07:56:56;;;;;;;1.40;1.20;;;;;;;;;;5098215;28;20640;-88
2023/01/28 07:59:24;;;;;;;2.75;0.85;;;;;;;;;;5096928;28;20247;-87
2023/01/28 08:01:52;;;;;;;0.90;0.90;;;;;;;;;;5097927;28;20208;-87
2023/01/28 08:04:21;;;;;;;0.93;0.93;;;;;;;;;;5097861;28;20219;-88
2023/01/28 08:06:51;;;;;;;0.90;0.90;;;;;;;;;;5097654;28;20215;-88
2023/01/28 08:09:18;;;;;;;1.85;0.93;;;;;;;;;;5096895;28;20192;-88
2023/01/28 08:11:46;;;;;;;0.90;0.90;;;;;;;;;;5096239;28;20268;-87
2023/01/28 08:14:13;;;;;;;1.45;1.35;;;;;;;;;;5097894;28;20311;-87
2023/01/28 08:16:41;;;;;;;0.80;0.80;;;;;;;;;;5097280;28;20234;-88
2023/01/28 08:19:10;;;;;;;1.00;1.00;;;;;;;;;;5096509;28;20229;-88
2023/01/28 08:21:38;;;;;;;0.90;0.90;;;;;;;;;;5096933;28;20184;-87
2023/01/28 08:24:07;;;;;;;0.85;0.85;;;;;;;;;;5097522;28;20220;-88
2023/01/28 08:26:35;;;;;;;1.33;1.33;;;;;;;;;;5097399;28;20232;-89
2023/01/28 08:29:02;;;;;;;1.40;1.30;;;;;;;;;;5096208;28;20261;-86
2023/01/28 08:31:30;;;;;;;3.05;1.60;;;;;;;;;;5094190;28;20602;-88
2023/01/28 08:33:57;;;;;;;1.58;1.40;;;;;;;;;;5097109;28;20640;-89
2023/01/28 08:36:25;;;;;;;1.90;1.35;;;;;;;;;;5097393;28;20290;-88
2023/01/28 08:38:55;;;;;;;1.55;1.45;;;;;;;;;;5095685;28;20225;-88
2023/01/28 08:41:22;;;;;;;2.47;1.40;;;;;;;;;;5097125;28;20279;-88
2023/01/28 08:43:50;;;;;;;1.13;1.10;;;;;;;;;;5096785;28;20227;-89
2023/01/28 08:46:18;;;;;;;1.15;1.15;;;;;;;;;;5096676;28;20311;-88
2023/01/28 08:48:45;;;;;;;1.95;1.73;;;;;;;;;;5096312;28;20631;-88
2023/01/28 08:51:13;;;;;;;2.78;1.67;;;;;;;;;;5096452;28;20196;-88
2023/01/28 08:53:40;;;;;;;3.78;2.00;;;;;;;;;;5096853;28;20200;-88
2023/01/28 08:56:09;;;;;;;1.92;1.83;;;;;;;;;;5096983;28;20729;-88
2023/01/28 08:58:37;;;;;;;1.90;1.80;;;;;;;;;;5095819;28;20311;-88
2023/01/28 09:01:06;;;;;;;1.80;1.45;;;;;;;;;;5097487;28;20665;-87
2023/01/28 09:03:34;;;;;;;2.00;1.50;;;;;;;;;;5096772;28;20283;-87
2023/01/28 09:06:02;;;;;;;1.63;1.52;;;;;;;;;;5096899;28;20197;-87
2023/01/28 09:08:30;;;;;;;1.25;1.15;;;;;;;;;;5096079;28;20196;-86
2023/01/28 09:10:58;;;;;;;2.10;1.60;;;;;;;;;;5097172;28;20239;-87
2023/01/28 09:13:27;;;;;;;1.45;1.35;;;;;;;;;;5098009;28;20628;-87
2023/01/28 09:15:55;;;;;;;2.03;1.48;;;;;;;;;;5097639;28;20204;-87
2023/01/28 09:18:22;;;;;;;2.33;1.50;;;;;;;;;;5098439;28;20228;-87
2023/01/28 09:20:50;;;;;;;1.52;1.30;;;;;;;;;;5097850;28;20224;-87
2023/01/28 09:23:17;;;;;;;1.15;1.15;;;;;;;;;;5098108;28;20244;-87
2023/01/28 09:25:45;;;;;;;2.15;1.48;;;;;;;;;;5096492;28;20251;-87
2023/01/28 09:28:12;;;;;;;1.27;1.17;;;;;;;;;;5097082;28;20230;-87
2023/01/28 09:30:41;;;;;;;1.10;1.10;;;;;;;;;;5098967;28;20656;-88
2023/01/28 09:33:09;;;;;;;2.25;1.42;;;;;;;;;;5097763;28;20197;-86
2023/01/28 09:35:37;;;;;;;1.23;1.20;;;;;;;;;;5096639;28;20236;-89
2023/01/28 09:38:04;;;;;;;0.93;0.93;;;;;;;;;;5094667;28;20216;-88
2023/01/28 09:40:36;;;;;;;1.58;1.48;;;;;;;;;;5097156;28;20937;-88
2023/01/28 09:43:32;;;;;;;1.35;1.33;;;;;;;;;;5096079;28;20287;-86
2023/01/28 09:46:05;;;;;;;1.70;1.60;;;;;;;;;;5096383;28;20254;-88
2023/01/28 09:48:36;;;;;;;1.40;1.30;;;;;;;;;;5096432;28;20649;-88
2023/01/28 09:51:10;;;;;;;1.60;1.50;;;;;;;;;;5096087;28;20203;-88
2023/01/28 09:53:41;;;;;;;1.95;1.50;;;;;;;;;;5095737;28;20176;-88
2023/01/28 09:56:13;;;;;;;1.85;1.75;;;;;;;;;;5095628;28;20193;-88
2023/01/28 09:58:42;;;;;;;2.65;2.45;;;;;;;;;;5094059;28;20602;-88
2023/01/28 10:01:33;;;;;;;2.17;2.08;;;;;;;;;;5095830;28;20578;-88
2023/01/28 10:04:06;;;;;;;3.22;2.05;;;;;;;;;;5095998;28;20314;-87
2023/01/28 10:06:45;;;;;;;3.08;2.78;;;;;;;;;;5096132;28;20188;-87
2023/01/28 10:09:27;;;;;;;4.18;2.67;;;;;;;;;;5095669;28;20192;-88
2023/01/28 10:12:27;;;;;;;2.70;2.50;;;;;;;;;;5094789;28;20687;-87
2023/01/28 10:15:19;;;;;;;2.25;2.13;;;;;;;;;;5081349;28;20254;-88
2023/01/28 10:17:50;;;;;;;2.35;2.15;;;;;;;;;;5095871;28;20276;-88
2023/01/28 10:20:24;;;;;;;2.70;2.50;;;;;;;;;;5095740;28;20244;-87
2023/01/28 10:22:57;;;;;;;2.10;2.00;;;;;;;;;;5097094;28;20278;-87
2023/01/28 10:25:28;;;;;;;3.28;2.97;;;;;;;;;;5096374;28;20741;-85
2023/01/28 10:27:56;;;;;;;2.97;2.78;;;;;;;;;;5095913;28;20629;-86
2023/01/28 10:30:28;;;;;;;2.65;2.15;;;;;;;;;;5094291;28;20693;-87
2023/01/28 10:33:01;;;;;;;2.70;2.50;;;;;;;;;;5095358;28;20209;-88
2023/01/28 10:35:28;;;;;;;7.35;3.47;;;;;;;;;;5096332;28;20323;-87
2023/01/28 10:38:05;;;;;;;3.80;3.28;;;;;;;;;;5083825;28;20627;-87
2023/01/28 10:40:33;;;;;;;3.60;3.35;;;;;;;;;;5080571;28;20193;-87
2023/01/28 10:43:00;;;;;;;3.20;2.90;;;;;;;;;;5077833;28;20197;-87
2023/01/28 10:45:32;;;;;;;4.07;3.78;;;;;;;;;;5078013;28;20706;-87
2023/01/28 10:48:08;;;;;;;3.10;2.90;;;;;;;;;;5077080;28;20205;-88
2023/01/28 10:50:35;;;;;;;4.03;3.65;;;;;;;;;;5076841;28;20185;-88
2023/01/28 10:53:05;;;;;;;3.63;3.30;;;;;;;;;;5077032;28;20266;-88
2023/01/28 10:55:48;;;;;;;3.33;3.13;;;;;;;;;;5078938;28;20224;-88
2023/01/28 10:58:20;;;;;;;3.20;2.97;;;;;;;;;;5086307;28;20289;-87
2023/01/28 11:00:54;;;;;;;3.22;2.92;;;;;;;;;;5101176;28;20177;-87
2023/01/28 11:03:26;;;;;;;3.00;2.80;;;;;;;;;;5100861;28;20206;-87
2023/01/28 11:05:55;;;;;;;3.42;3.20;;;;;;;;;;5100748;28;20227;-88
2023/01/28 11:08:25;;;;;;;2.72;2.53;;;;;;;;;;5100659;28;20250;-87
2023/01/28 11:10:54;;;;;;;2.60;2.40;;;;;;;;;;5100703;28;20203;-87
2023/01/28 11:13:23;;;;;;;2.65;2.45;;;;;;;;;;5100710;28;20204;-87
2023/01/28 11:15:54;;;;;;;4.25;2.00;;;;;;;;;;5099690;28;20282;-88
2023/01/28 11:18:26;;;;;;;2.22;2.13;;;;;;;;;;5100066;28;20181;-88
2023/01/28 11:20:56;;;;;;;2.17;1.98;;;;;;;;;;5100575;28;20206;-89
2023/01/28 11:23:27;;;;;;;2.05;1.85;;;;;;;;;;5100439;28;20214;-88
2023/01/28 11:26:07;;;;;;;2.72;1.80;;;;;;;;;;5101370;28;20224;-87
2023/01/28 11:28:36;;;;;;;1.60;1.50;;;;;;;;;;5100179;28;20185;-87
2023/01/28 11:31:04;;;;;;;3.15;1.83;;;;;;;;;;5100039;28;20208;-88
2023/01/28 11:33:38;;;;;;;2.35;2.15;;;;;;;;;;5100697;28;20261;-88
2023/01/28 11:36:12;;;;;;;2.60;1.73;;;;;;;;;;5099411;28;20180;-87
2023/01/28 11:38:50;;;;;;;1.25;1.15;;;;;;;;;;5098241;28;20224;-87
2023/01/28 11:41:28;;;;;;;1.52;1.42;;;;;;;;;;5098067;28;20721;-87
2023/01/28 11:43:58;;;;;;;1.60;1.50;;;;;;;;;;5098515;28;20247;-87
2023/01/28 11:47:00;;;;;;;1.98;1.83;;;;;;;;;;5099225;28;20222;-87
2023/01/28 11:49:39;;;;;;;2.05;1.80;;;;;;;;;;5097551;28;20195;-87
2023/01/28 11:52:14;;;;;;;1.38;1.20;;;;;;;;;;5097948;28;20289;-87
2023/01/28 11:54:53;;;;;;;2.28;1.70;;;;;;;;;;5098698;28;20273;-87
2023/01/28 11:57:26;;;;;;;1.40;1.30;;;;;;;;;;5097993;28;20283;-88
2023/01/28 12:00:30;;;;;;;1.10;1.10;;;;;;;;;;5076433;28;20604;-88
2023/01/28 12:03:16;;;;;;;1.73;1.63;;;;;;;;;;5036539;28;20235;-88
2023/01/28 12:05:51;;;;;;;2.50;1.60;;;;;;;;;;5077977;28;20652;-87
2023/01/28 12:08:24;;;;;;;4.32;1.80;;;;;;;;;;5076977;28;20193;-87
2023/01/28 12:11:13;;;;;;;1.75;1.65;;;;;;;;;;5078073;28;20835;-87
2023/01/28 12:13:52;;;;;;;1.30;1.30;;;;;;;;;;5077198;28;20207;-88
2023/01/28 12:16:55;;;;;;;1.23;1.13;;;;;;;;;;5077061;28;20232;-87
2023/01/28 12:19:46;;;;;;;3.45;1.60;;;;;;;;;;5074491;28;20211;-87
2023/01/28 12:22:36;;;;;;;2.15;1.45;;;;;;;;;;5077308;28;20188;-87
2023/01/28 12:25:19;;;;;;;2.50;1.80;;;;;;;;;;5078621;28;20236;-86
2023/01/28 12:27:54;;;;;;;1.52;1.42;;;;;;;;;;5081400;28;20204;-88
2023/01/28 12:30:33;;;;;;;2.47;1.90;;;;;;;;;;5098237;28;20863;-88
2023/01/28 12:33:38;;;;;;;2.80;1.88;;;;;;;;;;5097728;28;20224;-88
2023/01/28 12:36:21;;;;;;;3.45;2.50;;;;;;;;;;5098078;28;20283;-88
2023/01/28 12:39:02;;;;;;;1.70;1.60;;;;;;;;;;5095970;28;20235;-88
2023/01/28 12:41:34;;;;;;;2.10;1.98;;;;;;;;;;5097034;28;20269;-88
2023/01/28 12:44:05;;;;;;;1.88;1.73;;;;;;;;;;5097763;28;20279;-87
2023/01/28 12:46:42;;;;;;;1.50;1.40;;;;;;;;;;5098375;28;20271;-88
2023/01/28 12:49:17;;;;;;;3.30;1.83;;;;;;;;;;5096249;28;20223;-87
2023/01/28 12:51:57;;;;;;;1.10;1.10;;;;;;;;;;5096938;28;20215;-88
2023/01/28 12:54:32;;;;;;;2.78;2.33;;;;;;;;;;5097504;28;20216;-88
2023/01/28 12:56:59;;;;;;;1.42;1.33;;;;;;;;;;5097597;28;20223;-89
2023/01/28 12:59:31;;;;;;;2.17;1.90;;;;;;;;;;5096045;28;20287;-87
2023/01/28 13:02:22;;;;;;;1.88;1.77;;;;;;;;;;5097088;28;20196;-87
2023/01/28 13:04:57;;;;;;;1.30;1.20;;;;;;;;;;5097289;28;20220;-88
2023/01/28 13:07:30;;;;;;;1.55;1.45;;;;;;;;;;5096938;28;20200;-88
2023/01/28 13:10:07;;;;;;;1.60;1.50;;;;;;;;;;5097250;28;20181;-88
2023/01/28 13:12:35;;;;;;;4.07;1.58;;;;;;;;;;5097522;28;20562;-88
2023/01/28 13:15:03;;;;;;;2.00;1.30;;;;;;;;;;5097416;28;20285;-88
2023/01/28 13:17:32;;;;;;;1.40;1.40;;;;;;;;;;5096337;28;20196;-87
2023/01/28 13:20:00;;;;;;;1.55;1.45;;;;;;;;;;5096033;28;20273;-87
2023/01/28 13:22:32;;;;;;;2.17;2.03;;;;;;;;;;5096652;28;20200;-88
2023/01/28 13:25:27;;;;;;;2.65;2.33;;;;;;;;;;5096895;28;20224;-89
2023/01/28 13:27:58;;;;;;;2.33;2.05;;;;;;;;;;5097075;28;20632;-88
2023/01/28 13:30:29;;;;;;;1.50;1.40;;;;;;;;;;5095908;28;20233;-88
2023/01/28 13:32:59;;;;;;;4.90;3.15;;;;;;;;;;5096911;28;20237;-88
2023/01/28 13:35:34;;;;;;;2.03;1.90;;;;;;;;;;5097373;28;20772;-87
2023/01/28 13:38:10;;;;;;;1.88;1.77;;;;;;;;;;5096304;28;20191;-87
2023/01/28 13:40:39;;;;;;;3.50;1.30;;;;;;;;;;5097140;28;20716;-87
2023/01/28 13:43:26;;;;;;;1.60;1.48;;;;;;;;;;5096733;28;20196;-87
2023/01/28 13:45:58;;;;;;;1.42;1.40;;;;;;;;;;5096630;28;20704;-87
2023/01/28 13:48:33;;;;;;;1.33;1.23;;;;;;;;;;5095818;28;20250;-88
2023/01/28 13:51:01;;;;;;;2.60;2.10;;;;;;;;;;5097287;28;20208;-88
2023/01/28 13:53:40;;;;;;;3.20;2.05;;;;;;;;;;5096310;28;20188;-88
2023/01/28 13:56:21;;;;;;;2.50;1.58;;;;;;;;;;5097255;28;20651;-87
2023/01/28 13:59:23;;;;;;;2.08;1.85;;;;;;;;;;5095485;28;20307;-88
2023/01/28 14:02:34;;;;;;;1.60;1.50;;;;;;;;;;5095828;28;20601;-89
2023/01/28 14:05:30;;;;;;;2.00;1.85;;;;;;;;;;5095477;28;20216;-86
2023/01/28 14:08:39;;;;;;;2.50;2.15;;;;;;;;;;5095354;28;20264;-87
2023/01/28 14:11:32;;;;;;;1.45;1.35;;;;;;;;;;5072634;28;20204;-88
2023/01/28 14:14:28;;;;;;;2.75;2.55;;;;;;;;;;5095518;28;20220;-88
2023/01/28 14:16:58;;;;;;;3.33;2.33;;;;;;;;;;5059221;28;20243;-88
2023/01/28 14:19:29;;;;;;;2.10;2.00;;;;;;;;;;5096046;28;20276;-88
2023/01/28 14:21:57;;;;;;;2.60;1.95;;;;;;;;;;5097035;28;20733;-89
2023/01/28 14:24:25;;;;;;;1.48;1.38;;;;;;;;;;5095650;28;20269;-88
2023/01/28 14:27:02;;;;;;;1.45;1.35;;;;;;;;;;5094401;28;20208;-88
2023/01/28 14:29:53;;;;;;;1.45;1.35;;;;;;;;;;5096054;28;20649;-88
2023/01/28 14:32:27;;;;;;;1.65;1.55;;;;;;;;;;5100603;28;20231;-88
2023/01/28 14:34:55;;;;;;;1.80;1.58;;;;;;;;;;5100752;28;20224;-88
2023/01/28 14:37:28;;;;;;;1.33;1.33;;;;;;;;;;5100171;28;20384;-87
2023/01/28 14:39:58;;;;;;;1.50;1.40;;;;;;;;;;5100005;28;20617;-88
2023/01/28 14:42:31;;;;;;;1.10;1.10;;;;;;;;;;5100918;28;20303;-88
2023/01/28 14:45:13;;;;;;;1.50;1.33;;;;;;;;;;5100925;28;20212;-87
2023/01/28 14:47:56;;;;;;;2.25;2.00;;;;;;;;;;5100131;28;20358;-89
2023/01/28 14:50:35;;;;;;;1.60;1.50;;;;;;;;;;5100547;28;20306;-87
2023/01/28 14:53:40;;;;;;;2.83;2.55;;;;;;;;;;5100889;28;20644;-87
2023/01/28 14:56:20;;;;;;;2.85;2.28;;;;;;;;;;5099612;28;20208;-87
2023/01/28 14:58:52;;;;;;;2.95;2.75;;;;;;;;;;5099033;28;20273;-88
2023/01/28 15:01:25;;;;;;;3.17;2.92;;;;;;;;;;5100151;28;20303;-88
2023/01/28 15:03:53;;;;;;;2.53;2.35;;;;;;;;;;5100441;28;20252;-88
2023/01/28 15:06:23;;;;;;;6.40;3.03;;;;;;;;;;5099891;28;20188;-87
2023/01/28 15:08:52;;;;;;;2.15;1.95;;;;;;;;;;5099550;28;20287;-88
2023/01/28 15:11:23;;;;;;;2.80;2.53;;;;;;;;;;5100649;28;20201;-88
2023/01/28 15:13:54;;;;;;;1.80;1.70;;;;;;;;;;5100375;28;20180;-88
2023/01/28 15:16:27;;;;;;;2.60;2.40;;;;;;;;;;5100259;28;20204;-88
2023/01/28 15:18:55;;;;;;;2.08;1.92;;;;;;;;;;5099700;28;20189;-88
2023/01/28 15:21:24;;;;;;;2.38;2.10;;;;;;;;;;5099599;28;20271;-88
2023/01/28 15:23:55;;;;;;;2.33;2.15;;;;;;;;;;5099746;28;20222;-87
2023/01/28 15:26:25;;;;;;;2.63;2.00;;;;;;;;;;5099236;28;20197;-88
2023/01/28 15:28:55;;;;;;;2.17;2.03;;;;;;;;;;5099388;28;20641;-87
2023/01/28 15:31:25;;;;;;;2.17;1.95;;;;;;;;;;5099644;28;20224;-87
2023/01/28 15:34:00;;;;;;;1.80;1.70;;;;;;;;;;5099933;28;20342;-87
2023/01/28 15:36:29;;;;;;;3.90;1.63;;;;;;;;;;5099711;28;20230;-87
2023/01/28 15:38:57;;;;;;;1.48;1.38;;;;;;;;;;5098237;28;20273;-88
2023/01/28 15:41:28;;;;;;;1.50;1.40;;;;;;;;;;5098243;28;20252;-88